KIJD

Windham Airport

Willimantic, Connecticut, USA
METAR KIJD 171352Z AUTO 33008KT 10SM OVC011 02/01 A2969 RMK AO2 SLP056 T00220006
Observed Flight Rules
Dec-17 @ 13:52 UTC (37 minutes ago) Marginal Visual Flight Rules
Wind Visibility Clouds
330° at 8 knots 10 miles
  • Overcast at 1,100' AGL
Temperatures Readings
Current 2°C / 36°F
Dewpoint 1°C / 34°F
Humidity 93%
Altimeter 29.69" Hg
Pressure 1005.6 hPa
Elevation 75
METAR KIJD 171352Z AUTO 33008KT 10SM OVC011 02/01 A2969 RMK AO2 SLP056 T00220006
Observed Flight Rules
Dec-17 @ 13:52 UTC
(37 minutes ago)
MVFR
Wind Visibility
330° at 8 knots 10 miles
Clouds
  • Overcast at 1,100' AGL
Temperature Dewpoint
2°C / 36°F 1°C / 34°F
Humidity Altimeter Pressure
93% 29.69" Hg 1005.6 hPa